Time;durP1;ratioP1;P1;durP2;ratioP2;P2;SDS_P1;SDS_P2;PMS_P1;PMS_P2;Temp;Humidity;BMP_temperature;BMP_pressure;BME280_temperature;BME280_humidity;BME280_pressure;Samples;Min_cycle;Max_cycle;Signal;HPM_P1;HPM_P2
2023/03/02 00:05:33;;;;;;;37.97;20.30;;;;;;;1.65;52.81;98450.59;10395593;28;20128;-80
2023/03/02 00:10:55;;;;;;;42.22;19.75;;;;;;;1.69;51.54;98448.28;10376527;28;20038;-80
2023/03/02 00:16:16;;;;;;;36.58;20.67;;;;;;;1.60;51.58;98445.88;10376273;28;20049;-80
2023/03/02 00:21:37;;;;;;;41.78;21.27;;;;;;;1.54;51.93;98450.69;10375643;28;20045;-80
2023/03/02 00:26:58;;;;;;;38.08;20.80;;;;;;;1.50;52.47;98444.72;10403249;28;20069;-80
2023/03/02 00:32:19;;;;;;;34.53;20.52;;;;;;;1.52;53.24;98442.19;10388847;28;20399;-81
2023/03/02 00:37:40;;;;;;;41.47;21.40;;;;;;;1.54;53.44;98439.69;10388853;28;20049;-80
2023/03/02 00:43:01;;;;;;;42.28;20.98;;;;;;;1.54;54.02;98429.41;10402195;28;20037;-80
2023/03/02 00:48:22;;;;;;;39.83;23.52;;;;;;;1.53;53.51;98432.69;10388321;28;20052;-80
2023/03/02 00:53:42;;;;;;;43.75;22.88;;;;;;;1.49;52.99;98424.72;10388139;28;20045;-80
2023/03/02 00:59:05;;;;;;;42.92;23.17;;;;;;;1.44;53.54;98409.75;10374572;28;20041;-80
2023/03/02 01:04:29;;;;;;;43.55;20.98;;;;;;;1.44;53.96;98406.25;10375025;28;20077;-80
2023/03/02 01:09:51;;;;;;;43.87;23.00;;;;;;;1.40;53.89;98401.06;10374808;28;20463;-81
2023/03/02 01:15:12;;;;;;;40.67;22.42;;;;;;;1.44;53.96;98393.25;10387584;28;20045;-81
2023/03/02 01:20:32;;;;;;;39.25;21.70;;;;;;;1.40;54.20;98378.31;10387351;28;20070;-81
2023/03/02 01:25:53;;;;;;;43.47;23.20;;;;;;;1.37;54.16;98371.09;10373403;28;20042;-80
2023/03/02 01:31:14;;;;;;;42.05;22.75;;;;;;;1.27;54.72;98373.44;10386913;28;20053;-81
2023/03/02 01:36:35;;;;;;;40.63;23.23;;;;;;;1.22;54.05;98374.25;10373304;28;20042;-81
2023/03/02 01:41:56;;;;;;;48.92;26.15;;;;;;;1.18;54.26;98371.03;10360292;28;20048;-80
2023/03/02 01:47:22;;;;;;;44.38;24.98;;;;;;;1.12;54.78;98356.59;10373680;28;20072;-80
2023/03/02 01:52:52;;;;;;;46.15;25.42;;;;;;;1.09;54.76;98354.88;10391880;28;20450;-80
2023/03/02 01:58:14;;;;;;;37.28;22.02;;;;;;;1.09;54.89;98350.13;10381456;28;20048;-80
2023/03/02 02:03:35;;;;;;;42.88;23.67;;;;;;;1.02;55.23;98352.69;10379971;28;20553;-80
2023/03/02 02:08:56;;;;;;;42.92;23.95;;;;;;;1.03;54.96;98354.94;10391777;28;20040;-81
2023/03/02 02:14:17;;;;;;;41.90;24.02;;;;;;;1.01;54.74;98340.22;10405540;28;20048;-80
2023/03/02 02:19:49;;;;;;;40.63;22.35;;;;;;;0.97;55.21;98339.78;10391368;28;20071;-80
2023/03/02 02:25:51;;;;;;;45.85;24.48;;;;;;;0.95;54.89;98336.78;10390077;28;20048;-81
2023/03/02 02:31:22;;;;;;;45.17;23.52;;;;;;;0.93;55.47;98328.31;10392488;28;20079;-81
2023/03/02 02:36:44;;;;;;;45.65;23.77;;;;;;;0.90;54.69;98324.59;10356591;28;20041;-80
2023/03/02 02:42:11;;;;;;;42.47;24.00;;;;;;;0.88;55.72;98316.13;10376034;28;20041;-81
2023/03/02 02:47:32;;;;;;;44.08;24.08;;;;;;;0.90;55.87;98318.34;10387347;28;20045;-82
2023/03/02 02:53:02;;;;;;;43.28;24.20;;;;;;;0.92;55.79;98302.06;10374202;28;20068;-80
2023/03/02 02:58:37;;;;;;;45.20;23.75;;;;;;;0.87;56.17;98306.38;10371226;28;20038;-80
2023/03/02 03:04:03;;;;;;;45.67;23.30;;;;;;;0.83;55.85;98303.16;10355792;28;1194643;-80
2023/03/02 03:09:25;;;;;;;47.30;23.25;;;;;;;0.79;55.84;98297.97;10368272;28;20052;-80
2023/03/02 03:14:46;;;;;;;41.47;21.70;;;;;;;0.75;55.91;98305.72;10373344;28;20041;-80
2023/03/02 03:20:08;;;;;;;43.63;23.40;;;;;;;0.61;56.02;98309.63;10373613;28;20480;-81
2023/03/02 03:25:34;;;;;;;48.92;21.95;;;;;;;0.48;56.26;98306.72;10384680;28;20084;-80
2023/03/02 03:30:56;;;;;;;45.85;22.08;;;;;;;0.37;56.63;98312.31;10375640;28;20537;-81
2023/03/02 03:36:18;;;;;;;47.17;23.38;;;;;;;0.26;57.10;98313.91;10378401;28;20049;-79
2023/03/02 03:41:39;;;;;;;47.78;23.50;;;;;;;0.19;56.63;98305.47;10370448;28;20044;-80
2023/03/02 03:47:01;;;;;;;39.45;22.00;;;;;;;0.14;57.25;98315.25;10367612;28;20495;-80
2023/03/02 03:52:29;;;;;;;44.65;22.63;;;;;;;0.12;57.02;98309.53;10379262;28;20426;-80
2023/03/02 03:57:58;;;;;;;44.58;22.73;;;;;;;0.09;57.24;98316.03;10380019;28;20061;-80
2023/03/02 04:03:20;;;;;;;43.08;22.58;;;;;;;0.10;56.73;98314.06;10376471;28;20054;-80
2023/03/02 04:08:41;;;;;;;44.95;22.02;;;;;;;-0.02;57.30;98314.09;10376892;28;20099;-80
2023/03/02 04:14:02;;;;;;;40.17;20.98;;;;;;;-0.01;57.82;98301.88;10375396;28;20049;-81
2023/03/02 04:19:23;;;;;;;45.33;21.48;;;;;;;-0.03;58.09;98298.16;10362582;28;20044;-79
2023/03/02 04:24:48;;;;;;;45.05;23.73;;;;;;;-0.07;58.34;98308.66;10376695;28;20498;-80
2023/03/02 04:30:10;;;;;;;38.92;21.40;;;;;;;-0.09;57.79;98308.44;10375650;28;20476;-80
2023/03/02 04:35:31;;;;;;;41.45;22.05;;;;;;;-0.19;58.21;98313.47;10388996;28;20076;-80
2023/03/02 04:40:57;;;;;;;45.17;23.08;;;;;;;-0.22;58.35;98305.50;10388736;28;20041;-80
2023/03/02 04:46:20;;;;;;;47.58;23.90;;;;;;;-0.22;58.51;98303.50;10374892;28;20446;-80
2023/03/02 04:51:42;;;;;;;40.55;21.35;;;;;;;-0.18;58.84;98308.75;10403507;28;20048;-80
2023/03/02 04:57:03;;;;;;;47.35;22.98;;;;;;;-0.17;58.86;98304.75;10376291;28;20487;-80
2023/03/02 05:02:24;;;;;;;40.45;21.63;;;;;;;-0.16;58.81;98306.22;10387178;28;20049;-79
2023/03/02 05:07:45;;;;;;;44.63;23.80;;;;;;;-0.18;59.02;98303.25;10371839;28;20029;-80
2023/03/02 05:13:06;;;;;;;42.53;22.27;;;;;;;-0.16;58.95;98306.22;10398364;28;20045;-80
2023/03/02 05:18:27;;;;;;;46.20;23.10;;;;;;;-0.19;58.95;98301.75;10352128;28;20111;-80
2023/03/02 05:23:48;;;;;;;40.15;20.35;;;;;;;-0.18;58.91;98304.00;10333315;28;20049;-80
2023/03/02 05:29:09;;;;;;;43.78;23.73;;;;;;;-0.21;59.51;98304.25;10379294;28;20045;-80
2023/03/02 05:34:30;;;;;;;42.85;22.95;;;;;;;-0.19;59.40;98305.25;10414098;28;20052;-80
2023/03/02 05:39:51;;;;;;;46.63;24.65;;;;;;;-0.11;60.25;98316.41;10414214;28;20045;-80
2023/03/02 05:45:17;;;;;;;40.13;21.20;;;;;;;-0.06;59.00;98321.13;10408136;28;20038;-80
2023/03/02 05:50:38;;;;;;;40.17;22.55;;;;;;;0.01;59.29;98320.59;10368965;28;20091;-80
2023/03/02 05:55:59;;;;;;;40.97;22.75;;;;;;;0.22;59.04;98318.94;10370037;28;20053;-80
2023/03/02 06:01:20;;;;;;;46.65;22.05;;;;;;;0.97;58.90;98313.03;10387507;28;20076;-80
2023/03/02 06:06:41;;;;;;;42.78;21.83;;;;;;;2.12;57.88;98327.06;10375297;28;20050;-80
2023/03/02 06:12:02;;;;;;;48.40;24.33;;;;;;;3.40;56.85;98326.84;10346925;28;20045;-81
2023/03/02 06:17:23;;;;;;;42.45;24.58;;;;;;;4.81;55.61;98316.13;10333354;28;20053;-80
2023/03/02 06:22:46;;;;;;;44.15;25.40;;;;;;;6.17;53.48;98331.19;10332798;28;20057;-80
2023/03/02 06:28:07;;;;;;;48.20;28.23;;;;;;;7.73;51.26;98331.47;10319752;28;20038;-80
2023/03/02 06:33:29;;;;;;;41.85;26.67;;;;;;;9.41;50.25;98324.69;10358718;28;20045;-78
2023/03/02 06:38:50;;;;;;;43.15;26.92;;;;;;;10.88;47.39;98336.16;10348808;28;20046;-78
2023/03/02 06:44:11;;;;;;;43.40;28.60;;;;;;;11.48;46.51;98342.00;10353149;28;20062;-78
2023/03/02 06:49:32;;;;;;;45.40;27.98;;;;;;;10.22;45.79;98329.69;10354425;28;20042;-78
2023/03/02 06:54:53;;;;;;;46.88;29.38;;;;;;;11.96;39.22;98330.06;10369012;28;20081;-78
2023/03/02 07:00:23;;;;;;;41.50;27.58;;;;;;;13.91;39.74;98328.50;10369291;28;20503;-78
2023/03/02 07:05:47;;;;;;;40.90;28.38;;;;;;;15.17;38.18;98322.91;10390157;28;20443;-78
2023/03/02 07:11:10;;;;;;;42.50;27.67;;;;;;;16.40;37.23;98327.69;10387003;28;20041;-79
2023/03/02 07:16:32;;;;;;;39.97;27.00;;;;;;;17.19;33.55;98327.59;10370288;28;20061;-79
2023/03/02 07:21:54;;;;;;;36.67;25.77;;;;;;;18.23;30.07;98319.25;10387772;28;20049;-79
2023/03/02 07:27:15;;;;;;;36.40;27.20;;;;;;;19.14;26.74;98322.66;10400315;28;20049;-79
2023/03/02 07:32:36;;;;;;;36.65;26.55;;;;;;;19.60;28.17;98320.34;10434062;28;20467;-79
2023/03/02 07:37:57;;;;;;;35.20;25.73;;;;;;;20.69;26.90;98323.91;10418248;28;20076;-80
2023/03/02 07:43:18;;;;;;;35.83;26.13;;;;;;;20.98;22.63;98319.28;10405434;28;20049;-81
2023/03/02 07:48:39;;;;;;;37.22;24.60;;;;;;;21.75;23.09;98313.41;10376450;28;20056;-80
2023/03/02 07:54:01;;;;;;;35.55;24.10;;;;;;;22.53;21.89;98322.25;10404190;28;20052;-80
2023/03/02 07:59:23;;;;;;;34.53;24.45;;;;;;;23.49;19.66;98311.38;10377128;28;20052;-80
2023/03/02 08:04:44;;;;;;;29.77;24.08;;;;;;;23.63;17.53;98313.88;10376525;28;20052;-80
2023/03/02 08:10:05;;;;;;;29.33;23.92;;;;;;;23.43;17.74;98311.94;10390003;28;20068;-81
2023/03/02 08:15:26;;;;;;;33.13;24.88;;;;;;;23.84;17.54;98313.00;10376126;28;20049;-81
2023/03/02 08:20:46;;;;;;;35.17;25.30;;;;;;;22.42;17.22;98326.91;10389744;28;20076;-80
2023/03/02 08:26:07;;;;;;;33.20;24.55;;;;;;;21.07;17.74;98326.69;10376223;28;20053;-80
2023/03/02 08:31:31;;;;;;;34.95;25.02;;;;;;;24.12;14.58;98326.44;10390006;28;20099;-80
2023/03/02 08:36:53;;;;;;;34.03;24.15;;;;;;;23.76;14.95;98334.88;10403015;28;20050;-81
2023/03/02 08:42:15;;;;;;;32.23;25.03;;;;;;;21.36;16.91;98328.44;10388579;28;20091;-81
2023/03/02 08:47:36;;;;;;;30.58;23.55;;;;;;;21.04;18.38;98323.06;10374778;28;20037;-81
2023/03/02 08:52:57;;;;;;;29.73;24.60;;;;;;;20.29;19.06;98317.44;10388452;28;20046;-81
2023/03/02 08:58:18;;;;;;;31.27;22.47;;;;;;;20.13;20.79;98311.84;10374580;28;20072;-81
2023/03/02 09:03:38;;;;;;;31.20;23.20;;;;;;;20.07;22.11;98303.09;10387944;28;20095;-82
2023/03/02 09:08:59;;;;;;;29.75;21.80;;;;;;;20.85;22.61;98301.09;10373979;28;20034;-75
2023/03/02 09:14:20;;;;;;;;;;;;;;;22.32;18.51;98312.38;10388551;28;20049;-83
2023/03/02 09:19:41;;;;;;;26.17;20.48;;;;;;;25.80;16.28;98309.16;10387512;28;19944;-83
2023/03/02 09:25:04;;;;;;;26.52;20.70;;;;;;;28.94;13.11;98303.72;10382562;28;20098;-84
2023/03/02 09:30:25;;;;;;;22.40;19.35;;;;;;;31.92;12.45;98313.16;10427712;28;20033;-84
2023/03/02 09:35:46;;;;;;;26.42;20.08;;;;;;;32.78;9.85;98306.50;10428079;28;20049;-83
2023/03/02 09:41:19;;;;;;;29.00;20.08;;;;;;;34.20;9.18;98301.50;10414019;28;20140;-84
2023/03/02 09:46:53;;;;;;;21.58;19.27;;;;;;;35.42;8.92;98299.06;10403214;28;20041;-84
2023/03/02 09:52:30;;;;;;;21.33;18.80;;;;;;;36.38;7.84;98296.66;10373436;28;20131;-84
2023/03/02 09:57:52;;;;;;;22.30;17.52;;;;;;;36.76;7.38;98299.97;10386556;28;20495;-84
2023/03/02 10:03:22;;;;;;;20.55;18.25;;;;;;;36.86;7.15;98291.69;10386715;28;20050;-82
2023/03/02 10:08:43;;;;;;;18.50;16.60;;;;;;;36.75;7.55;98284.72;10373621;28;20480;-84
2023/03/02 10:14:26;;;;;;;22.23;17.48;;;;;;;36.45;6.86;98283.41;10376954;28;20436;-85
2023/03/02 10:19:52;;;;;;;22.00;17.55;;;;;;;36.76;7.05;98282.50;10411002;28;20403;-82
2023/03/02 10:25:35;;;;;;;25.80;18.20;;;;;;;36.60;6.47;98277.91;10394346;28;20045;-80
2023/03/02 10:31:26;;;;;;;23.88;18.25;;;;;;;35.72;6.23;98276.56;10407492;28;20065;-80
2023/03/02 10:36:47;;;;;;;25.10;18.50;;;;;;;36.05;6.62;98274.28;10393385;28;20399;-83
2023/03/02 10:42:25;;;;;;;21.52;17.50;;;;;;;36.12;6.62;98274.84;10380076;28;20044;-82
2023/03/02 10:47:46;;;;;;;19.98;16.27;;;;;;;36.72;6.66;98265.91;10381082;28;20095;-83
2023/03/02 10:53:15;;;;;;;19.38;15.80;;;;;;;35.73;6.44;98257.69;10379517;28;20045;-82
2023/03/02 10:58:36;;;;;;;22.75;18.52;;;;;;;34.31;6.49;98259.28;10379191;28;20053;-82
2023/03/02 11:03:58;;;;;;;23.20;18.35;;;;;;;27.94;9.16;98240.75;10379221;28;20095;-80
2023/03/02 11:09:20;;;;;;;24.77;19.02;;;;;;;24.15;10.61;98240.28;10378703;28;20487;-77
2023/03/02 11:14:41;;;;;;;;;;;;;;;21.75;13.68;98241.66;10392572;28;20407;-79
2023/03/02 11:20:03;;;;;;;28.48;19.70;;;;;;;20.83;13.15;98225.13;10378516;28;19922;-79
2023/03/02 11:25:38;;;;;;;26.93;19.93;;;;;;;19.91;14.53;98226.00;10391169;28;20041;-77
2023/03/02 11:31:00;;;;;;;28.50;18.85;;;;;;;19.30;14.66;98210.13;10387567;28;20396;-79
2023/03/02 11:36:23;;;;;;;28.17;18.80;;;;;;;18.39;15.00;98209.78;10364133;28;20442;-79
2023/03/02 11:41:45;;;;;;;26.55;17.20;;;;;;;17.89;15.78;98206.13;10369923;28;20045;-79
2023/03/02 11:47:06;;;;;;;26.92;19.33;;;;;;;17.34;16.35;98200.69;10372286;28;20100;-81
2023/03/02 11:52:29;;;;;;;25.88;19.08;;;;;;;17.12;17.09;98186.25;10370689;28;20045;-79
2023/03/02 11:57:55;;;;;;;30.10;20.90;;;;;;;16.02;17.98;98186.28;10387877;28;20073;-78
2023/03/02 12:03:16;;;;;;;31.42;20.08;;;;;;;15.42;18.95;98187.22;10361461;28;20419;-78
2023/03/02 12:08:44;;;;;;;30.55;21.25;;;;;;;15.44;20.13;98175.34;10408644;28;20502;-77
2023/03/02 12:14:35;;;;;;;33.97;20.27;;;;;;;14.84;21.23;98179.72;10382771;28;20041;-78
2023/03/02 12:20:25;;;;;;;28.17;18.75;;;;;;;15.11;21.53;98179.16;10395130;28;20436;-78
2023/03/02 12:25:50;;;;;;;27.20;18.05;;;;;;;15.41;20.32;98170.94;10409433;28;20468;-78
2023/03/02 12:31:11;;;;;;;28.27;19.02;;;;;;;15.42;20.38;98156.25;10382921;28;20510;-77
2023/03/02 12:36:38;;;;;;;28.90;19.48;;;;;;;15.46;20.69;98145.25;10386232;28;20045;-77
2023/03/02 12:41:59;;;;;;;34.40;19.50;;;;;;;15.10;20.96;98143.97;10371887;28;20491;-77
2023/03/02 12:47:25;;;;;;;32.80;18.83;;;;;;;15.04;20.88;98146.41;10424638;28;20049;-77
2023/03/02 12:53:17;;;;;;;31.73;18.85;;;;;;;15.08;21.21;98135.41;10379332;28;20408;-77
2023/03/02 12:58:38;;;;;;;30.85;19.75;;;;;;;14.96;21.15;98131.94;10394011;28;20045;-77
2023/03/02 13:03:59;;;;;;;28.45;17.50;;;;;;;14.73;21.50;98123.56;10390040;28;20057;-77
2023/03/02 13:09:20;;;;;;;26.98;17.58;;;;;;;14.58;21.32;98111.53;10410891;28;20045;-76
2023/03/02 13:14:42;;;;;;;28.35;17.38;;;;;;;14.46;21.22;98119.22;10398801;28;20494;-76
2023/03/02 13:20:03;;;;;;;27.65;18.10;;;;;;;14.54;21.54;98102.84;10398413;28;20067;-77
2023/03/02 13:25:29;;;;;;;27.92;17.00;;;;;;;14.38;21.94;98093.47;10394480;28;20038;-77
2023/03/02 13:30:58;;;;;;;25.23;16.58;;;;;;;14.32;21.89;98082.59;10377253;28;20510;-76
2023/03/02 13:36:27;;;;;;;28.42;17.60;;;;;;;14.18;22.13;98075.41;10379363;28;20417;-77
2023/03/02 13:41:59;;;;;;;28.23;16.90;;;;;;;13.89;22.13;98076.53;10409671;28;20037;-76
2023/03/02 13:47:21;;;;;;;25.33;16.33;;;;;;;13.92;22.41;98061.31;10394558;28;20199;-77
2023/03/02 13:52:42;;;;;;;29.15;16.85;;;;;;;13.22;22.68;98061.28;10403778;28;20396;-76
2023/03/02 13:58:03;;;;;;;31.70;17.58;;;;;;;12.79;23.88;98052.94;10402803;28;20431;-76
2023/03/02 14:03:26;;;;;;;30.08;16.52;;;;;;;12.75;23.49;98049.91;10388563;28;20061;-77
2023/03/02 14:08:48;;;;;;;26.88;15.93;;;;;;;12.67;23.83;98040.97;10416554;28;20116;-77
2023/03/02 14:14:13;;;;;;;22.98;15.40;;;;;;;12.95;23.68;98047.66;10402148;28;20045;-77
2023/03/02 14:19:35;;;;;;;28.38;15.15;;;;;;;12.86;23.50;98035.19;10390218;28;20041;-78
2023/03/02 14:24:55;;;;;;;24.05;14.23;;;;;;;12.63;23.95;98037.19;10406285;28;20048;-79
2023/03/02 14:30:19;;;;;;;23.67;15.07;;;;;;;12.59;24.08;98023.66;10414404;28;20041;-79
2023/03/02 14:35:39;;;;;;;21.52;14.73;;;;;;;12.49;23.85;98028.59;10381928;28;20045;-79
2023/03/02 14:41:00;;;;;;;21.33;14.35;;;;;;;12.44;23.95;98026.88;10400094;28;20049;-79
2023/03/02 14:46:21;;;;;;;26.85;14.15;;;;;;;12.28;24.27;98012.56;10387733;28;20053;-79
2023/03/02 14:51:42;;;;;;;25.77;14.23;;;;;;;12.20;23.82;98006.44;10404207;28;20071;-79
2023/03/02 14:57:06;;;;;;;19.60;13.10;;;;;;;12.11;24.10;98013.56;10401135;28;20049;-79
2023/03/02 15:02:27;;;;;;;;;;;;;;;11.84;24.35;98002.69;10415270;28;20081;-79
2023/03/02 15:07:48;;;;;;;23.48;13.43;;;;;;;11.67;24.28;97998.06;10415795;28;19925;-79
2023/03/02 15:13:09;;;;;;;20.40;12.20;;;;;;;11.63;24.18;98000.59;10386026;28;20042;-79
2023/03/02 15:18:31;;;;;;;18.90;12.25;;;;;;;11.57;24.03;98008.56;10392288;28;20049;-77
2023/03/02 15:23:52;;;;;;;20.75;12.10;;;;;;;11.58;24.00;98001.66;10417643;28;20046;-78
2023/03/02 15:29:13;;;;;;;18.90;11.45;;;;;;;11.42;24.01;98000.56;10371929;28;20048;-79
2023/03/02 15:34:34;;;;;;;16.98;10.43;;;;;;;11.14;24.13;98000.06;10401185;28;20046;-79
2023/03/02 15:39:55;;;;;;;18.40;10.27;;;;;;;11.16;23.95;97986.22;10416911;28;20447;-80
2023/03/02 15:45:16;;;;;;;16.98;10.32;;;;;;;10.96;23.78;97990.41;10368973;28;20403;-79
2023/03/02 15:50:37;;;;;;;20.25;11.35;;;;;;;10.73;23.91;97995.78;10401274;28;20049;-79
2023/03/02 15:55:58;;;;;;;16.30;10.02;;;;;;;10.56;24.10;97996.66;10388133;28;20042;-79
2023/03/02 16:01:19;;;;;;;15.63;9.65;;;;;;;10.35;23.88;97985.38;10415455;28;20450;-79
2023/03/02 16:06:41;;;;;;;16.80;10.75;;;;;;;10.18;24.37;97992.53;10374689;28;20127;-79
2023/03/02 16:12:01;;;;;;;15.57;10.07;;;;;;;10.08;24.39;97993.88;10386639;28;20045;-78
2023/03/02 16:17:23;;;;;;;17.85;11.10;;;;;;;9.99;24.35;97987.69;10367081;28;20045;-80
2023/03/02 16:22:43;;;;;;;18.58;10.50;;;;;;;9.82;24.55;97987.06;10378182;28;20068;-80
2023/03/02 16:28:05;;;;;;;17.77;10.73;;;;;;;9.62;24.75;97987.03;10369898;28;20048;-78
2023/03/02 16:33:27;;;;;;;17.38;10.15;;;;;;;9.50;24.60;97997.28;10383893;28;20052;-79
2023/03/02 16:38:48;;;;;;;19.77;10.63;;;;;;;9.34;25.37;97991.19;10384513;28;20037;-78
2023/03/02 16:44:09;;;;;;;26.00;12.15;;;;;;;9.16;25.25;97989.81;10378119;28;20045;-76
2023/03/02 16:49:30;;;;;;;18.52;11.18;;;;;;;9.06;25.45;97989.03;10377097;28;20048;-77
2023/03/02 16:54:51;;;;;;;17.77;10.32;;;;;;;8.92;25.30;97996.28;10378460;28;20072;-78
2023/03/02 17:00:14;;;;;;;24.02;10.73;;;;;;;8.76;25.44;98004.84;10389312;28;20045;-77
2023/03/02 17:05:35;;;;;;;20.63;10.43;;;;;;;8.66;26.13;98001.25;10406353;28;20053;-78
2023/03/02 17:10:56;;;;;;;16.08;10.48;;;;;;;8.59;26.32;97999.34;10406708;28;20136;-78
2023/03/02 17:16:18;;;;;;;22.38;11.82;;;;;;;8.50;26.54;98002.78;10393072;28;20056;-76
2023/03/02 17:21:39;;;;;;;19.90;11.52;;;;;;;8.41;26.83;98006.22;10394406;28;20037;-77
2023/03/02 17:26:59;;;;;;;25.85;12.23;;;;;;;8.28;27.13;98005.22;10393864;28;20514;-77
2023/03/02 17:32:21;;;;;;;26.65;13.20;;;;;;;8.21;27.47;98010.88;10390922;28;20042;-76
2023/03/02 17:37:42;;;;;;;16.20;10.10;;;;;;;8.12;27.38;98012.25;10388529;28;20122;-76
2023/03/02 17:43:03;;;;;;;19.58;10.85;;;;;;;7.96;27.48;98008.91;10376572;28;20041;-76
2023/03/02 17:48:25;;;;;;;20.75;10.68;;;;;;;7.86;27.46;98004.56;10401752;28;20041;-76
2023/03/02 17:53:47;;;;;;;18.33;11.23;;;;;;;7.80;27.83;98009.59;10376115;28;20396;-73
2023/03/02 17:59:09;;;;;;;19.58;11.02;;;;;;;7.75;27.81;98017.63;10361118;28;20049;-76
2023/03/02 18:04:30;;;;;;;21.60;11.15;;;;;;;7.64;28.70;98006.97;10360541;28;20058;-78
2023/03/02 18:09:51;;;;;;;27.63;11.73;;;;;;;7.55;28.57;97999.28;10372522;28;20042;-78
2023/03/02 18:15:12;;;;;;;17.42;10.95;;;;;;;7.46;28.44;98003.41;10400693;28;20050;-77
2023/03/02 18:20:33;;;;;;;22.25;12.57;;;;;;;7.31;28.53;98005.56;10390561;28;20091;-77
2023/03/02 18:25:54;;;;;;;25.02;13.18;;;;;;;7.27;29.22;98003.19;10388848;28;20399;-77
2023/03/02 18:31:16;;;;;;;26.20;12.93;;;;;;;7.28;29.30;98012.25;10389979;28;20041;-76
2023/03/02 18:36:37;;;;;;;24.42;14.10;;;;;;;7.19;29.51;98013.63;10395597;28;20065;-76
2023/03/02 18:41:59;;;;;;;45.92;20.77;;;;;;;7.11;29.49;98015.69;10399170;28;20042;-77
2023/03/02 18:47:20;;;;;;;32.90;17.08;;;;;;;7.00;29.67;98024.47;10406667;28;20048;-77
2023/03/02 18:52:41;;;;;;;27.48;15.02;;;;;;;6.87;29.96;98019.94;10426028;28;20487;-76
2023/03/02 18:58:03;;;;;;;28.92;15.65;;;;;;;6.77;30.07;98019.78;10408153;28;20049;-77
2023/03/02 19:03:24;;;;;;;28.92;18.17;;;;;;;6.72;30.85;98025.53;10434946;28;20132;-76
2023/03/02 19:08:45;;;;;;;25.45;15.60;;;;;;;6.63;30.76;98020.59;10420744;28;20044;-80
2023/03/02 19:14:05;;;;;;;24.52;13.80;;;;;;;6.58;30.73;98019.50;10434028;28;20052;-81
2023/03/02 19:19:27;;;;;;;22.52;13.02;;;;;;;6.53;31.09;98020.44;10434330;28;20048;-81
2023/03/02 19:24:48;;;;;;;24.67;13.27;;;;;;;6.52;30.38;98027.28;10420640;28;20041;-81
2023/03/02 19:30:19;;;;;;;22.10;12.20;;;;;;;6.56;30.67;98033.19;10433383;28;20041;-82
2023/03/02 19:35:40;;;;;;;21.73;12.68;;;;;;;6.50;30.82;98036.19;10433389;28;20052;-81
2023/03/02 19:41:01;;;;;;;26.08;14.38;;;;;;;6.46;30.91;98040.63;10418987;28;20086;-81
2023/03/02 19:46:22;;;;;;;29.98;15.55;;;;;;;6.35;31.36;98030.66;10432419;28;20055;-81
2023/03/02 19:51:43;;;;;;;28.98;15.68;;;;;;;6.25;31.25;98038.09;10432652;28;20052;-81
2023/03/02 19:57:04;;;;;;;30.42;17.15;;;;;;;6.07;32.18;98042.00;10418198;28;20045;-81
2023/03/02 20:02:26;;;;;;;27.45;15.75;;;;;;;6.01;32.20;98047.78;10445472;28;20056;-80
2023/03/02 20:07:47;;;;;;;30.05;17.27;;;;;;;5.95;32.68;98064.56;10431297;28;20041;-81
2023/03/02 20:13:08;;;;;;;32.20;16.63;;;;;;;5.90;32.78;98059.97;10430924;28;20037;-79
2023/03/02 20:18:29;;;;;;;30.33;16.83;;;;;;;5.87;32.90;98052.72;10417454;28;20506;-79
2023/03/02 20:23:50;;;;;;;33.55;16.73;;;;;;;5.83;32.96;98065.50;10431464;28;20537;-81
2023/03/02 20:29:12;;;;;;;32.20;17.85;;;;;;;5.76;33.81;98058.66;10430567;28;20052;-81
2023/03/02 20:34:33;;;;;;;34.63;18.80;;;;;;;5.68;34.32;98066.22;10416691;28;20143;-81
2023/03/02 20:39:55;;;;;;;33.38;18.05;;;;;;;5.59;33.90;98064.00;10422193;28;20049;-81
2023/03/02 20:45:16;;;;;;;32.15;17.58;;;;;;;5.53;34.90;98064.19;10421246;28;20041;-81
2023/03/02 20:50:37;;;;;;;33.75;19.25;;;;;;;5.46;34.67;98073.97;10427914;28;20037;-80
2023/03/02 20:55:58;;;;;;;35.50;19.45;;;;;;;5.37;34.91;98071.75;10418784;28;20037;-79
2023/03/02 21:01:19;;;;;;;41.88;22.20;;;;;;;5.24;34.79;98065.66;10345960;28;20046;-79
2023/03/02 21:06:41;;;;;;;43.42;22.75;;;;;;;5.16;36.02;98062.84;10318819;28;20053;-80
2023/03/02 21:12:03;;;;;;;38.03;20.83;;;;;;;5.07;35.94;98060.63;10351298;28;20049;-80
2023/03/02 21:17:24;;;;;;;38.00;20.30;;;;;;;4.97;36.61;98070.75;10374556;28;20049;-81
2023/03/02 21:22:46;;;;;;;31.05;18.35;;;;;;;5.00;36.78;98064.84;10363652;28;20049;-80
2023/03/02 21:28:07;;;;;;;43.38;23.73;;;;;;;4.93;37.46;98064.84;10372400;28;20049;-80
2023/03/02 21:33:28;;;;;;;42.30;20.25;;;;;;;4.85;37.38;98062.06;10370556;28;20048;-80
2023/03/02 21:38:50;;;;;;;33.20;19.05;;;;;;;4.73;38.25;98056.13;10385040;28;20049;-80
2023/03/02 21:44:11;;;;;;;37.80;19.15;;;;;;;4.69;37.49;98066.03;10370418;28;20049;-79
2023/03/02 21:49:33;;;;;;;38.22;19.95;;;;;;;4.68;38.16;98062.53;10371406;28;20416;-80
2023/03/02 21:54:54;;;;;;;39.70;21.85;;;;;;;4.58;40.33;98058.81;10386460;28;20385;-79
2023/03/02 22:00:21;;;;;;;42.08;21.38;;;;;;;4.46;38.56;98063.94;10385533;28;20045;-80
2023/03/02 22:05:42;;;;;;;42.17;21.30;;;;;;;4.40;39.73;98059.84;10332446;28;20054;-80
2023/03/02 22:11:04;;;;;;;53.03;26.60;;;;;;;4.38;39.52;98065.16;10337792;28;20050;-80
2023/03/02 22:16:27;;;;;;;49.63;24.55;;;;;;;4.29;39.61;98072.69;10340375;28;20503;-80
2023/03/02 22:21:49;;;;;;;46.08;22.20;;;;;;;4.26;40.08;98064.75;10340590;28;20100;-80
2023/03/02 22:27:20;;;;;;;46.05;23.60;;;;;;;4.16;40.85;98061.00;10310393;28;20065;-80
2023/03/02 22:32:41;;;;;;;41.08;22.50;;;;;;;4.13;40.78;98054.53;10327008;28;20049;-79
2023/03/02 22:38:06;;;;;;;41.88;22.20;;;;;;;4.15;40.18;98060.25;10339911;28;20088;-80
2023/03/02 22:43:31;;;;;;;40.28;21.80;;;;;;;4.11;41.14;98059.84;10339633;28;20053;-80
2023/03/02 22:48:52;;;;;;;36.00;20.52;;;;;;;4.10;40.89;98063.91;10353689;28;20069;-80
2023/03/02 22:54:19;;;;;;;35.85;19.70;;;;;;;4.05;41.14;98050.97;10339808;28;20542;-80
2023/03/02 22:59:40;;;;;;;38.67;20.67;;;;;;;4.00;40.84;98057.41;10339600;28;20041;-80
2023/03/02 23:05:01;;;;;;;40.30;22.05;;;;;;;3.94;41.50;98056.78;10365018;28;20045;-80
2023/03/02 23:10:23;;;;;;;38.92;21.83;;;;;;;3.88;41.49;98053.47;10379355;28;20053;-80
2023/03/02 23:15:44;;;;;;;39.95;20.65;;;;;;;3.83;41.75;98046.03;10365579;28;20056;-80
2023/03/02 23:21:15;;;;;;;43.50;21.02;;;;;;;3.78;42.46;98044.19;10364525;28;20045;-80
2023/03/02 23:26:36;;;;;;;41.28;20.70;;;;;;;3.68;42.75;98038.41;10379373;28;20037;-79
2023/03/02 23:31:57;;;;;;;35.50;19.55;;;;;;;3.60;42.28;98041.09;10378773;28;20099;-80
2023/03/02 23:37:19;;;;;;;35.42;19.58;;;;;;;3.49;43.18;98038.63;10377934;28;20052;-80
2023/03/02 23:42:39;;;;;;;44.05;20.88;;;;;;;3.49;44.82;98049.66;10378358;28;20099;-80
2023/03/02 23:48:01;;;;;;;41.03;20.30;;;;;;;3.48;43.87;98036.41;10376026;28;20484;-80
2023/03/02 23:53:22;;;;;;;35.58;19.50;;;;;;;3.30;43.95;98036.09;10405092;28;20510;-79
2023/03/02 23:58:43;;;;;;;39.30;19.65;;;;;;;3.31;43.95;98042.34;10391844;28;20439;-80
